createdAt,value
2023-01-01T00:00:49.329Z,10.37
2023-01-01T00:03:16.859Z,10.37
2023-01-01T00:05:44.260Z,10.35
2023-01-01T00:08:11.305Z,10.36
2023-01-01T00:10:38.459Z,10.35
2023-01-01T00:13:05.726Z,10.34
2023-01-01T00:15:33.536Z,10.34
2023-01-01T00:18:00.587Z,10.33
2023-01-01T00:20:31.665Z,10.33
2023-01-01T00:23:01.875Z,10.31
2023-01-01T00:25:28.937Z,10.33
2023-01-01T00:27:55.974Z,10.34
2023-01-01T00:30:24.920Z,10.33
2023-01-01T00:32:54.790Z,10.33
2023-01-01T00:35:25.446Z,10.33
2023-01-01T00:37:53.816Z,10.33
2023-01-01T00:40:20.796Z,10.32
2023-01-01T00:42:47.832Z,10.35
2023-01-01T00:45:20.901Z,10.35
2023-01-01T00:47:48.928Z,10.35
2023-01-01T00:50:16.461Z,10.33
2023-01-01T00:52:44.318Z,10.33
2023-01-01T00:55:11.727Z,10.32
2023-01-01T00:57:38.890Z,10.31
2023-01-01T01:00:07.274Z,10.32
2023-01-01T01:02:34.870Z,10.33
2023-01-01T01:05:03.691Z,10.31
2023-01-01T01:07:36.785Z,10.31
2023-01-01T01:10:05.406Z,10.28
2023-01-01T01:12:35.472Z,10.27
2023-01-01T01:15:04.710Z,10.28
2023-01-01T01:17:31.751Z,10.29
2023-01-01T01:19:58.973Z,10.29
2023-01-01T01:22:29.032Z,10.29
2023-01-01T01:24:58.144Z,10.30
2023-01-01T01:27:25.625Z,10.28
2023-01-01T01:29:53.732Z,10.27
2023-01-01T01:32:21.076Z,10.28
2023-01-01T01:34:48.386Z,10.29
2023-01-01T01:37:15.834Z,10.29
2023-01-01T01:39:42.986Z,10.29
2023-01-01T01:42:18.045Z,10.30
2023-01-01T01:44:55.197Z,10.30
2023-01-01T01:47:32.801Z,10.29
2023-01-01T01:50:23.897Z,10.30
2023-01-01T01:53:15.819Z,10.28
2023-01-01T01:56:11.148Z,10.27
2023-01-01T01:58:38.164Z,10.28
2023-01-01T02:01:06.260Z,10.28
2023-01-01T02:03:48.727Z,10.28
2023-01-01T02:06:16.640Z,10.27
2023-01-01T02:08:43.751Z,10.27
2023-01-01T02:11:10.799Z,10.28
2023-01-01T02:13:39.126Z,10.28
2023-01-01T02:16:38.127Z,10.23
2023-01-01T02:19:29.608Z,10.20
2023-01-01T02:22:12.348Z,10.22
2023-01-01T02:25:22.286Z,10.18
2023-01-01T02:28:25.007Z,10.18
2023-01-01T02:30:55.630Z,10.19
2023-01-01T02:33:31.532Z,10.21
2023-01-01T02:36:03.064Z,10.21
2023-01-01T02:38:35.495Z,10.23
2023-01-01T02:41:08.299Z,10.26
2023-01-01T02:43:35.756Z,10.26
2023-01-01T02:48:51.852Z,10.25
2023-01-01T02:51:38.668Z,10.25
2023-01-01T02:54:16.844Z,10.25
2023-01-01T02:57:16.117Z,10.25
2023-01-01T03:00:19.714Z,10.25
2023-01-01T03:03:05.811Z,10.23
2023-01-01T03:05:58.923Z,10.24
2023-01-01T03:08:55.168Z,10.23
2023-01-01T03:11:25.749Z,10.22
2023-01-01T03:14:12.602Z,10.22
2023-01-01T03:17:05.246Z,10.21
2023-01-01T03:19:38.434Z,10.21
2023-01-01T03:22:17.410Z,10.21
2023-01-01T03:24:53.256Z,10.21
2023-01-01T03:27:36.241Z,10.21
2023-01-01T03:30:08.642Z,10.21
2023-01-01T03:33:03.264Z,10.21
2023-01-01T03:35:56.132Z,10.22
2023-01-01T03:38:31.948Z,10.20
2023-01-01T03:41:05.712Z,10.20
2023-01-01T03:44:12.547Z,10.19
2023-01-01T03:46:40.083Z,10.19
2023-01-01T03:49:10.615Z,10.19
2023-01-01T03:52:25.810Z,10.19
2023-01-01T03:55:53.617Z,10.18
2023-01-01T03:58:36.143Z,10.16
2023-01-01T04:01:10.542Z,10.18
2023-01-01T04:03:39.681Z,10.15
2023-01-01T04:06:08.068Z,10.16
2023-01-01T04:08:36.534Z,10.17
2023-01-01T04:11:31.931Z,10.12
2023-01-01T04:13:59.029Z,10.10
2023-01-01T04:16:26.110Z,10.10
2023-01-01T04:18:53.185Z,10.09
2023-01-01T04:21:20.109Z,10.13
2023-01-01T04:23:47.079Z,10.12
2023-01-01T04:26:15.090Z,10.10
2023-01-01T04:28:43.234Z,10.11
2023-01-01T04:31:11.630Z,10.07
2023-01-01T04:33:39.246Z,10.06
2023-01-01T04:36:09.799Z,10.06
2023-01-01T04:38:38.515Z,10.05
2023-01-01T04:41:05.863Z,10.01
2023-01-01T04:43:33.471Z,10.07
2023-01-01T04:46:04.205Z,10.02
2023-01-01T04:48:32.216Z,10.03
2023-01-01T04:51:04.865Z,10.04
2023-01-01T04:53:34.661Z,10.06
2023-01-01T04:56:18.514Z,10.07
2023-01-01T04:58:46.808Z,10.05
2023-01-01T05:01:26.016Z,10.06
2023-01-01T05:03:56.220Z,10.05
2023-01-01T05:06:24.055Z,10.05
2023-01-01T05:08:57.084Z,10.06
2023-01-01T05:11:29.705Z,10.10
2023-01-01T05:14:00.359Z,10.04
2023-01-01T05:16:31.075Z,10.05
2023-01-01T05:18:58.231Z,10.07
2023-01-01T05:21:32.854Z,10.05
2023-01-01T05:24:03.904Z,10.03
2023-01-01T05:26:33.924Z,10.05
2023-01-01T05:29:02.007Z,10.06
2023-01-01T05:31:34.251Z,10.07
2023-01-01T05:36:38.604Z,10.08
2023-01-01T05:39:08.076Z,10.11
2023-01-01T05:41:36.669Z,10.11
2023-01-01T05:44:07.393Z,10.12
2023-01-01T05:46:34.947Z,10.15
2023-01-01T05:49:02.425Z,10.14
2023-01-01T05:53:59.064Z,10.15
2023-01-01T05:56:27.258Z,10.16
2023-01-01T05:58:55.647Z,10.15
2023-01-01T06:01:24.906Z,10.16
2023-01-01T06:03:54.569Z,10.16
2023-01-01T06:06:25.321Z,10.16
2023-01-01T06:09:01.738Z,10.15
2023-01-01T06:11:29.734Z,10.12
2023-01-01T06:13:59.763Z,10.11
2023-01-01T06:16:29.108Z,10.12
2023-01-01T06:18:56.317Z,10.08
2023-01-01T06:21:26.022Z,10.06
2023-01-01T06:23:55.684Z,10.10
2023-01-01T06:26:28.030Z,10.12
2023-01-01T06:28:56.571Z,10.02
2023-01-01T06:31:23.932Z,10.00
2023-01-01T06:33:51.953Z,9.93
2023-01-01T06:36:22.655Z,9.98
2023-01-01T06:38:54.210Z,9.91
2023-01-01T06:41:24.724Z,9.91
2023-01-01T06:43:52.767Z,9.96
2023-01-01T06:46:31.135Z,9.98
2023-01-01T06:49:06.137Z,9.96
2023-01-01T06:51:38.844Z,9.97
2023-01-01T06:54:07.194Z,9.94
2023-01-01T06:56:35.361Z,9.96
2023-01-01T06:59:05.096Z,9.95
2023-01-01T07:01:35.981Z,9.95
2023-01-01T07:04:07.905Z,9.92
2023-01-01T07:06:36.086Z,9.96
2023-01-01T07:09:04.958Z,9.92
2023-01-01T07:11:32.890Z,9.95
2023-01-01T07:14:02.045Z,9.96
2023-01-01T07:16:29.154Z,9.92
2023-01-01T07:18:57.620Z,9.95
2023-01-01T07:21:52.829Z,9.97
2023-01-01T07:24:20.677Z,9.99
2023-01-01T07:26:50.208Z,10.00
2023-01-01T07:29:17.596Z,10.02
2023-01-01T07:31:45.350Z,10.01
2023-01-01T07:34:19.827Z,10.04
2023-01-01T07:36:46.871Z,10.04
2023-01-01T07:39:13.927Z,10.06
2023-01-01T07:41:41.548Z,10.05
2023-01-01T07:44:08.560Z,10.04
2023-01-01T07:46:37.161Z,10.05
2023-01-01T07:49:05.269Z,10.07
2023-01-01T07:51:32.270Z,10.11
2023-01-01T07:54:05.800Z,10.09
2023-01-01T07:56:35.822Z,10.07
2023-01-01T07:59:03.401Z,10.07
2023-01-01T08:01:30.425Z,10.06
2023-01-01T08:03:57.530Z,10.06
2023-01-01T08:06:24.462Z,10.03
2023-01-01T08:08:51.513Z,10.04
2023-01-01T08:11:18.497Z,10.05
2023-01-01T08:13:45.523Z,10.06
2023-01-01T08:16:12.583Z,10.07
2023-01-01T08:18:41.095Z,10.07
2023-01-01T08:21:08.885Z,10.05
2023-01-01T08:23:35.863Z,10.04
2023-01-01T08:26:03.873Z,10.06
2023-01-01T08:28:31.702Z,10.07
2023-01-01T08:30:59.446Z,10.09
2023-01-01T08:33:29.491Z,10.11
2023-01-01T08:35:57.447Z,10.08
2023-01-01T08:38:24.486Z,10.11
2023-01-01T08:40:52.032Z,10.12
2023-01-01T08:43:19.071Z,10.14
2023-01-01T08:45:46.460Z,10.15
2023-01-01T08:48:13.424Z,10.16
2023-01-01T08:50:40.364Z,10.18
2023-01-01T08:53:07.383Z,10.20
2023-01-01T08:55:35.117Z,10.23
2023-01-01T08:58:07.292Z,10.23
2023-01-01T09:00:34.475Z,10.26
2023-01-01T09:03:01.638Z,10.26
2023-01-01T09:05:28.757Z,10.27
2023-01-01T09:07:55.716Z,10.25
2023-01-01T09:10:22.693Z,10.27
2023-01-01T09:12:49.683Z,10.25
2023-01-01T09:15:17.247Z,10.27
2023-01-01T09:17:44.257Z,10.29
2023-01-01T09:20:12.053Z,10.32
2023-01-01T09:22:39.437Z,10.32
2023-01-01T09:25:06.728Z,10.32
2023-01-01T09:27:33.823Z,10.31
2023-01-01T09:30:00.929Z,10.37
2023-01-01T09:32:30.425Z,10.35
2023-01-01T09:34:57.613Z,10.35
2023-01-01T09:37:24.622Z,10.36
2023-01-01T09:39:51.784Z,10.39
2023-01-01T09:42:49.798Z,10.38
2023-01-01T09:45:43.452Z,10.36
2023-01-01T09:48:15.972Z,10.36
2023-01-01T09:50:46.287Z,10.38
2023-01-01T09:53:25.326Z,10.38
2023-01-01T09:55:59.807Z,10.38
2023-01-01T09:58:33.093Z,10.39
2023-01-01T10:01:25.158Z,10.39
2023-01-01T10:04:01.693Z,10.36
2023-01-01T10:06:33.059Z,10.35
2023-01-01T10:09:20.640Z,10.35
2023-01-01T10:12:08.381Z,10.35
2023-01-01T10:14:46.792Z,10.38
2023-01-01T10:17:37.370Z,10.38
2023-01-01T10:20:17.459Z,10.37
2023-01-01T10:22:49.753Z,10.38
2023-01-01T10:25:27.704Z,10.40
2023-01-01T10:28:11.366Z,10.41
2023-01-01T10:30:41.490Z,10.43
2023-01-01T10:33:14.351Z,10.44
2023-01-01T10:35:53.369Z,10.45
2023-01-01T10:38:26.051Z,10.46
2023-01-01T10:41:00.494Z,10.50
2023-01-01T10:43:29.815Z,10.46
2023-01-01T10:45:57.757Z,10.48
2023-01-01T10:48:28.454Z,10.46
2023-01-01T10:51:05.031Z,10.46
2023-01-01T10:53:42.508Z,10.46
2023-01-01T10:56:18.919Z,10.49
2023-01-01T10:58:57.112Z,10.49
2023-01-01T11:01:30.145Z,10.51
2023-01-01T11:04:19.669Z,10.52
2023-01-01T11:06:48.068Z,10.53
2023-01-01T11:09:36.989Z,10.55
2023-01-01T11:12:15.212Z,10.55
2023-01-01T11:14:58.463Z,10.55
2023-01-01T11:17:36.958Z,10.57
2023-01-01T11:20:05.806Z,10.58
2023-01-01T11:22:52.343Z,10.60
2023-01-01T11:25:29.253Z,10.59
2023-01-01T11:28:21.971Z,10.60
2023-01-01T11:31:21.181Z,10.56
2023-01-01T11:33:53.087Z,10.54
2023-01-01T11:36:35.424Z,10.57
2023-01-01T11:39:21.092Z,10.56
2023-01-01T11:41:52.378Z,10.48
2023-01-01T11:44:41.511Z,10.51
2023-01-01T11:47:23.628Z,10.55
2023-01-01T11:49:58.889Z,10.55
2023-01-01T11:52:42.232Z,10.52
2023-01-01T11:55:18.425Z,10.53
2023-01-01T11:58:26.516Z,10.55
2023-01-01T12:00:59.132Z,10.55
2023-01-01T12:03:39.864Z,10.55
2023-01-01T12:06:13.028Z,10.55
2023-01-01T12:08:55.955Z,10.54
2023-01-01T12:11:42.721Z,10.56
2023-01-01T12:14:46.651Z,10.58
2023-01-01T12:17:33.847Z,10.56
2023-01-01T12:20:53.650Z,10.54
2023-01-01T12:23:20.828Z,10.51
2023-01-01T12:26:02.887Z,10.53
2023-01-01T12:29:09.115Z,10.51
2023-01-01T12:32:10.767Z,10.55
2023-01-01T12:35:07.443Z,10.55
2023-01-01T12:37:35.401Z,10.55
2023-01-01T12:40:35.421Z,10.58
2023-01-01T12:43:13.145Z,10.59
2023-01-01T12:46:03.083Z,10.59
2023-01-01T12:49:00.695Z,10.58
2023-01-01T12:52:07.133Z,10.60
2023-01-01T12:54:56.578Z,10.60
2023-01-01T12:57:36.729Z,10.59
2023-01-01T13:00:16.176Z,10.59
2023-01-01T13:03:04.496Z,10.61
2023-01-01T13:05:44.496Z,10.64
2023-01-01T13:08:11.960Z,10.65
2023-01-01T13:10:43.431Z,10.65
2023-01-01T13:13:13.560Z,10.64
2023-01-01T13:15:41.539Z,10.62
2023-01-01T13:18:14.594Z,10.64
2023-01-01T13:21:06.027Z,10.63
2023-01-01T13:23:34.709Z,10.66
2023-01-01T13:26:20.777Z,10.64
2023-01-01T13:29:00.026Z,10.62
2023-01-01T13:31:39.697Z,10.63
2023-01-01T13:34:42.804Z,10.63
2023-01-01T13:37:14.006Z,10.63
2023-01-01T13:40:03.044Z,10.63
2023-01-01T13:43:02.305Z,10.58
2023-01-01T13:48:45.148Z,10.65
2023-01-01T13:54:56.350Z,10.66
2023-01-01T13:58:15.133Z,10.64
2023-01-01T14:01:24.328Z,10.66
2023-01-01T14:03:56.869Z,10.63
2023-01-01T14:06:38.216Z,10.61
2023-01-01T14:09:15.311Z,10.61
2023-01-01T14:11:52.504Z,10.62
2023-01-01T14:14:31.004Z,10.63
2023-01-01T14:17:07.593Z,10.67
2023-01-01T14:19:40.540Z,10.65
2023-01-01T14:22:15.966Z,10.68
2023-01-01T14:24:46.365Z,10.68
2023-01-01T14:27:21.120Z,10.72
2023-01-01T14:29:51.566Z,10.68
2023-01-01T14:32:24.650Z,10.66
2023-01-01T14:35:02.412Z,10.66
2023-01-01T14:37:29.570Z,10.62
2023-01-01T14:40:28.229Z,10.64
2023-01-01T14:43:01.636Z,10.59
2023-01-01T14:45:32.433Z,10.60
2023-01-01T14:48:01.182Z,10.63
2023-01-01T14:50:32.589Z,10.62
2023-01-01T14:53:08.897Z,10.60
2023-01-01T14:55:42.588Z,10.61
2023-01-01T14:58:24.637Z,10.61
2023-01-01T15:00:52.837Z,10.63
2023-01-01T15:03:22.348Z,10.63
2023-01-01T15:06:01.689Z,10.61
2023-01-01T15:08:29.339Z,10.60
2023-01-01T15:10:57.216Z,10.61
2023-01-01T15:13:28.550Z,10.60
2023-01-01T15:16:01.891Z,10.63
2023-01-01T15:18:44.189Z,10.62
2023-01-01T15:21:26.149Z,10.62
2023-01-01T15:24:11.417Z,10.63
2023-01-01T15:26:52.433Z,10.62
2023-01-01T15:29:31.049Z,10.64
2023-01-01T15:32:02.832Z,10.61
2023-01-01T15:34:41.635Z,10.61
2023-01-01T15:37:43.863Z,10.56
2023-01-01T15:40:14.001Z,10.55
2023-01-01T15:42:55.798Z,10.54
2023-01-01T15:45:25.829Z,10.53
2023-01-01T15:47:56.871Z,10.54
2023-01-01T15:50:38.176Z,10.54
2023-01-01T15:53:15.464Z,10.52
2023-01-01T15:55:51.794Z,10.44
2023-01-01T15:58:33.494Z,10.46
2023-01-01T16:01:06.871Z,10.46
2023-01-01T16:03:37.172Z,10.45
2023-01-01T16:06:05.424Z,10.48
2023-01-01T16:08:32.455Z,10.46
2023-01-01T16:10:59.452Z,10.52
2023-01-01T16:13:26.477Z,10.48
2023-01-01T16:15:58.452Z,10.50
2023-01-01T16:18:33.298Z,10.48
2023-01-01T16:21:02.143Z,10.48
2023-01-01T16:23:29.191Z,10.49
2023-01-01T16:25:56.272Z,10.50
2023-01-01T16:28:23.710Z,10.51
2023-01-01T16:30:51.146Z,10.52
2023-01-01T16:33:21.588Z,10.53
2023-01-01T16:35:48.733Z,10.57
2023-01-01T16:38:17.138Z,10.59
2023-01-01T16:40:44.186Z,10.60
2023-01-01T16:43:18.855Z,10.63
2023-01-01T16:45:46.090Z,10.63
2023-01-01T16:48:13.216Z,10.64
2023-01-01T16:50:40.453Z,10.66
2023-01-01T16:53:07.575Z,10.66
2023-01-01T16:55:34.692Z,10.66
2023-01-01T16:58:46.792Z,10.67
2023-01-01T17:00:49.458Z,10.67
2023-01-01T17:03:17.311Z,10.68
2023-01-01T17:05:44.896Z,10.68
2023-01-01T17:08:12.213Z,10.69
2023-01-01T17:10:39.573Z,10.69
2023-01-01T17:13:07.638Z,10.70
2023-01-01T17:15:34.817Z,10.70
2023-01-01T17:18:01.861Z,10.71
2023-01-01T17:20:28.906Z,10.72
2023-01-01T17:22:56.030Z,10.71
2023-01-01T17:25:23.503Z,10.72
2023-01-01T17:27:50.691Z,10.73
2023-01-01T17:30:17.862Z,10.73
2023-01-01T17:32:44.922Z,10.74
2023-01-01T17:35:11.920Z,10.76
2023-01-01T17:37:38.918Z,10.76
2023-01-01T17:40:07.149Z,10.75
2023-01-01T17:42:37.535Z,10.77
2023-01-01T17:45:05.366Z,10.77
2023-01-01T17:47:33.547Z,10.77
2023-01-01T17:50:01.177Z,10.77
2023-01-01T17:52:28.387Z,10.77
2023-01-01T17:54:55.377Z,10.77
2023-01-01T17:57:22.364Z,10.75
2023-01-01T17:59:49.460Z,10.75
2023-01-01T18:02:16.598Z,10.75
2023-01-01T18:04:43.706Z,10.75
2023-01-01T18:07:10.678Z,10.76
2023-01-01T18:09:38.454Z,10.76
2023-01-01T18:12:06.291Z,10.77
2023-01-01T18:14:33.330Z,10.77
2023-01-01T18:17:00.432Z,10.76
2023-01-01T18:19:27.891Z,10.76
2023-01-01T18:21:55.110Z,10.76
2023-01-01T18:24:22.250Z,10.75
2023-01-01T18:26:49.266Z,10.74
2023-01-01T18:29:16.256Z,10.74
2023-01-01T18:31:44.005Z,10.75
2023-01-01T18:34:11.480Z,10.74
2023-01-01T18:36:39.664Z,10.74
2023-01-01T18:39:27.105Z,10.73
2023-01-01T18:42:15.324Z,10.72
2023-01-01T18:44:43.455Z,10.71
2023-01-01T18:47:19.835Z,10.72
2023-01-01T18:49:53.880Z,10.72
2023-01-01T18:52:30.990Z,10.72
2023-01-01T18:55:19.441Z,10.70
2023-01-01T18:57:53.936Z,10.71
2023-01-01T19:00:28.087Z,10.71
2023-01-01T19:02:57.386Z,10.68
2023-01-01T19:05:35.815Z,10.68
2023-01-01T19:08:15.676Z,10.68
2023-01-01T19:11:01.877Z,10.70
2023-01-01T19:13:34.373Z,10.67
2023-01-01T19:16:10.679Z,10.68
2023-01-01T19:18:44.269Z,10.67
2023-01-01T19:21:11.093Z,10.67
2023-01-01T19:24:02.115Z,10.69
2023-01-01T19:26:40.136Z,10.70
2023-01-01T19:29:18.233Z,10.69
2023-01-01T19:31:54.377Z,10.71
2023-01-01T19:34:22.891Z,10.71
2023-01-01T19:36:50.320Z,10.72
2023-01-01T19:39:19.385Z,10.73
2023-01-01T19:41:46.959Z,10.73
2023-01-01T19:44:15.483Z,10.74
2023-01-01T19:46:44.421Z,10.75
2023-01-01T19:49:11.448Z,10.75
2023-01-01T19:51:38.719Z,10.76
2023-01-01T19:54:07.144Z,10.76
2023-01-01T19:56:34.105Z,10.78
2023-01-01T19:59:01.092Z,10.77
2023-01-01T20:01:28.252Z,10.76
2023-01-01T20:03:57.849Z,10.75
2023-01-01T20:06:26.227Z,10.76
2023-01-01T20:08:53.875Z,10.76
2023-01-01T20:11:21.788Z,10.78
2023-01-01T20:13:48.825Z,10.77
2023-01-01T20:16:15.867Z,10.78
2023-01-01T20:18:42.987Z,10.79
2023-01-01T20:21:29.293Z,10.79
2023-01-01T20:23:56.210Z,10.79
2023-01-01T20:26:25.496Z,10.79
2023-01-01T20:29:28.187Z,10.80
2023-01-01T20:31:55.815Z,10.80
2023-01-01T20:34:23.245Z,10.80
2023-01-01T20:37:09.023Z,10.82
2023-01-01T20:39:38.885Z,10.82
2023-01-01T20:42:05.991Z,10.82
2023-01-01T20:44:33.192Z,10.82
2023-01-01T20:47:00.300Z,10.83
2023-01-01T20:49:27.337Z,10.83
2023-01-01T20:51:54.320Z,10.81
2023-01-01T20:54:22.601Z,10.81
2023-01-01T20:56:49.920Z,10.81
2023-01-01T20:59:34.724Z,10.81
2023-01-01T21:02:08.993Z,10.80
2023-01-01T21:04:38.916Z,10.79
2023-01-01T21:07:09.009Z,10.79
2023-01-01T21:09:37.216Z,10.79
2023-01-01T21:12:05.042Z,10.80
2023-01-01T21:14:32.226Z,10.80
2023-01-01T21:16:59.373Z,10.80
2023-01-01T21:19:28.049Z,10.81
2023-01-01T21:21:56.477Z,10.80
2023-01-01T21:24:37.600Z,10.83
2023-01-01T21:27:13.472Z,10.82
2023-01-01T21:29:53.698Z,10.81
2023-01-01T21:32:42.849Z,10.80
2023-01-01T21:35:35.290Z,10.80
2023-01-01T21:38:16.417Z,10.79
2023-01-01T21:40:59.719Z,10.81
2023-01-01T21:43:48.189Z,10.81
2023-01-01T21:46:35.766Z,10.81
2023-01-01T21:49:35.579Z,10.80
2023-01-01T21:52:03.561Z,10.81
2023-01-01T21:54:36.575Z,10.77
2023-01-01T21:57:20.039Z,10.78
2023-01-01T21:59:47.682Z,10.76
2023-01-01T22:02:14.844Z,10.78
2023-01-01T22:04:46.320Z,10.77
2023-01-01T22:10:36.043Z,10.79
2023-01-01T22:13:03.718Z,10.79
2023-01-01T22:15:42.121Z,10.81
2023-01-01T22:18:11.952Z,10.81
2023-01-01T22:20:42.947Z,10.80
2023-01-01T22:23:41.073Z,10.80
2023-01-01T22:26:22.395Z,10.78
2023-01-01T22:29:07.761Z,10.77
2023-01-01T22:31:36.421Z,10.77
2023-01-01T22:34:05.427Z,10.79
2023-01-01T22:36:36.460Z,10.79
2023-01-01T22:39:30.172Z,10.80
2023-01-01T22:41:57.266Z,10.80
2023-01-01T22:44:27.571Z,10.82
2023-01-01T22:46:58.935Z,10.80
2023-01-01T22:49:42.559Z,10.81
2023-01-01T22:52:10.202Z,10.81
2023-01-01T22:54:37.179Z,10.82
2023-01-01T22:57:06.076Z,10.82
2023-01-01T22:59:33.068Z,10.83
2023-01-01T23:02:00.485Z,10.84
2023-01-01T23:04:27.566Z,10.83
2023-01-01T23:06:54.882Z,10.80
2023-01-01T23:09:21.907Z,10.81
2023-01-01T23:11:48.964Z,10.81
2023-01-01T23:14:38.562Z,10.81
2023-01-01T23:17:06.320Z,10.80
2023-01-01T23:19:33.999Z,10.80
2023-01-01T23:22:03.219Z,10.81
2023-01-01T23:24:30.854Z,10.82
2023-01-01T23:26:59.274Z,10.82
2023-01-01T23:29:32.553Z,10.82
2023-01-01T23:32:01.632Z,10.82
2023-01-01T23:34:28.872Z,10.82
2023-01-01T23:36:57.149Z,10.83
2023-01-01T23:39:24.808Z,10.82
2023-01-01T23:41:52.153Z,10.81
2023-01-01T23:44:19.463Z,10.81
2023-01-01T23:46:46.803Z,10.80
2023-01-01T23:49:15.173Z,10.81
2023-01-01T23:51:42.195Z,10.81
2023-01-01T23:54:10.857Z,10.81
2023-01-01T23:56:39.119Z,10.81
2023-01-01T23:59:06.075Z,10.81
